sensor_id;sensor_type;location;lat;lon;timestamp;P1;durP1;ratioP1;P2;durP2;ratioP2
30243;SDS011;64022;53.652;9.792;2022-12-07T00:03:32;49.42;;;27.90;;
30243;SDS011;64022;53.652;9.792;2022-12-07T00:05:58;45.17;;;26.73;;
30243;SDS011;64022;53.652;9.792;2022-12-07T00:08:24;47.78;;;27.05;;
30243;SDS011;64022;53.652;9.792;2022-12-07T00:10:50;47.63;;;27.73;;
30243;SDS011;64022;53.652;9.792;2022-12-07T00:13:15;46.03;;;27.47;;
30243;SDS011;64022;53.652;9.792;2022-12-07T00:15:41;47.57;;;27.63;;
30243;SDS011;64022;53.652;9.792;2022-12-07T00:18:06;46.80;;;26.93;;
30243;SDS011;64022;53.652;9.792;2022-12-07T00:20:32;46.87;;;27.03;;
30243;SDS011;64022;53.652;9.792;2022-12-07T00:22:58;46.83;;;27.37;;
30243;SDS011;64022;53.652;9.792;2022-12-07T00:25:24;43.90;;;26.37;;
30243;SDS011;64022;53.652;9.792;2022-12-07T00:27:51;46.33;;;26.30;;
30243;SDS011;64022;53.652;9.792;2022-12-07T00:30:18;45.95;;;26.45;;
30243;SDS011;64022;53.652;9.792;2022-12-07T00:32:44;46.77;;;26.73;;
30243;SDS011;64022;53.652;9.792;2022-12-07T00:35:09;47.00;;;27.53;;
30243;SDS011;64022;53.652;9.792;2022-12-07T00:37:35;38.87;;;25.20;;
30243;SDS011;64022;53.652;9.792;2022-12-07T00:40:00;46.53;;;25.53;;
30243;SDS011;64022;53.652;9.792;2022-12-07T00:42:26;43.60;;;25.27;;
30243;SDS011;64022;53.652;9.792;2022-12-07T00:44:51;43.23;;;25.27;;
30243;SDS011;64022;53.652;9.792;2022-12-07T00:47:17;44.33;;;25.67;;
30243;SDS011;64022;53.652;9.792;2022-12-07T00:49:42;42.20;;;24.13;;
30243;SDS011;64022;53.652;9.792;2022-12-07T00:52:08;44.93;;;26.57;;
30243;SDS011;64022;53.652;9.792;2022-12-07T00:54:33;45.53;;;25.70;;
30243;SDS011;64022;53.652;9.792;2022-12-07T00:56:59;45.13;;;25.33;;
30243;SDS011;64022;53.652;9.792;2022-12-07T00:59:24;42.20;;;26.43;;
30243;SDS011;64022;53.652;9.792;2022-12-07T01:01:50;47.93;;;25.37;;
30243;SDS011;64022;53.652;9.792;2022-12-07T01:04:15;43.20;;;24.60;;
30243;SDS011;64022;53.652;9.792;2022-12-07T01:06:41;43.23;;;25.83;;
30243;SDS011;64022;53.652;9.792;2022-12-07T01:09:06;41.63;;;24.23;;
30243;SDS011;64022;53.652;9.792;2022-12-07T01:11:32;39.03;;;24.40;;
30243;SDS011;64022;53.652;9.792;2022-12-07T01:13:59;39.67;;;23.20;;
30243;SDS011;64022;53.652;9.792;2022-12-07T01:16:26;41.15;;;24.67;;
30243;SDS011;64022;53.652;9.792;2022-12-07T01:18:53;41.60;;;24.85;;
30243;SDS011;64022;53.652;9.792;2022-12-07T01:21:24;39.40;;;23.88;;
30243;SDS011;64022;53.652;9.792;2022-12-07T01:24:03;41.20;;;24.20;;
30243;SDS011;64022;53.652;9.792;2022-12-07T01:26:30;41.08;;;26.20;;
30243;SDS011;64022;53.652;9.792;2022-12-07T01:28:56;40.27;;;24.17;;
30243;SDS011;64022;53.652;9.792;2022-12-07T01:31:24;40.10;;;24.83;;
30243;SDS011;64022;53.652;9.792;2022-12-07T01:33:52;39.33;;;24.00;;
30243;SDS011;64022;53.652;9.792;2022-12-07T01:36:24;38.22;;;23.00;;
30243;SDS011;64022;53.652;9.792;2022-12-07T01:38:51;39.78;;;22.60;;
30243;SDS011;64022;53.652;9.792;2022-12-07T01:41:21;37.10;;;22.70;;
30243;SDS011;64022;53.652;9.792;2022-12-07T01:46:31;38.83;;;23.27;;
30243;SDS011;64022;53.652;9.792;2022-12-07T01:48:57;40.50;;;23.37;;
30243;SDS011;64022;53.652;9.792;2022-12-07T01:51:22;37.27;;;21.77;;
30243;SDS011;64022;53.652;9.792;2022-12-07T01:53:48;38.13;;;23.03;;
30243;SDS011;64022;53.652;9.792;2022-12-07T01:56:15;35.40;;;22.80;;
30243;SDS011;64022;53.652;9.792;2022-12-07T01:58:43;38.35;;;22.65;;
30243;SDS011;64022;53.652;9.792;2022-12-07T02:01:10;36.25;;;22.48;;
30243;SDS011;64022;53.652;9.792;2022-12-07T02:03:42;34.13;;;20.73;;
30243;SDS011;64022;53.652;9.792;2022-12-07T02:06:09;37.08;;;22.35;;
30243;SDS011;64022;53.652;9.792;2022-12-07T02:08:37;36.95;;;21.95;;
30243;SDS011;64022;53.652;9.792;2022-12-07T02:11:04;37.40;;;22.67;;
30243;SDS011;64022;53.652;9.792;2022-12-07T02:13:33;31.50;;;21.10;;
30243;SDS011;64022;53.652;9.792;2022-12-07T02:19:29;37.75;;;21.88;;
30243;SDS011;64022;53.652;9.792;2022-12-07T02:22:29;33.60;;;20.63;;
30243;SDS011;64022;53.652;9.792;2022-12-07T02:25:30;37.03;;;22.98;;
30243;SDS011;64022;53.652;9.792;2022-12-07T02:28:35;33.00;;;20.02;;
30243;SDS011;64022;53.652;9.792;2022-12-07T02:31:06;35.60;;;20.90;;
30243;SDS011;64022;53.652;9.792;2022-12-07T02:33:40;33.42;;;20.77;;
30243;SDS011;64022;53.652;9.792;2022-12-07T02:36:12;30.58;;;20.60;;
30243;SDS011;64022;53.652;9.792;2022-12-07T02:43:55;32.92;;;20.63;;
30243;SDS011;64022;53.652;9.792;2022-12-07T02:46:28;31.23;;;20.00;;
30243;SDS011;64022;53.652;9.792;2022-12-07T02:48:57;35.65;;;20.70;;
30243;SDS011;64022;53.652;9.792;2022-12-07T02:51:25;32.47;;;20.58;;
30243;SDS011;64022;53.652;9.792;2022-12-07T02:53:51;33.47;;;20.73;;
30243;SDS011;64022;53.652;9.792;2022-12-07T03:02:17;28.30;;;18.63;;
30243;SDS011;64022;53.652;9.792;2022-12-07T03:05:25;32.50;;;19.38;;
30243;SDS011;64022;53.652;9.792;2022-12-07T03:08:05;30.75;;;18.23;;
30243;SDS011;64022;53.652;9.792;2022-12-07T03:10:58;29.73;;;18.70;;
30243;SDS011;64022;53.652;9.792;2022-12-07T03:13:27;31.35;;;19.27;;
30243;SDS011;64022;53.652;9.792;2022-12-07T03:18:46;32.65;;;19.50;;
30243;SDS011;64022;53.652;9.792;2022-12-07T03:21:34;31.52;;;19.33;;
30243;SDS011;64022;53.652;9.792;2022-12-07T03:24:24;27.77;;;18.33;;
30243;SDS011;64022;53.652;9.792;2022-12-07T03:27:18;32.15;;;18.40;;
30243;SDS011;64022;53.652;9.792;2022-12-07T03:32:20;30.77;;;18.02;;
30243;SDS011;64022;53.652;9.792;2022-12-07T03:34:53;29.92;;;17.55;;
30243;SDS011;64022;53.652;9.792;2022-12-07T03:37:29;32.35;;;17.98;;
30243;SDS011;64022;53.652;9.792;2022-12-07T03:42:32;27.17;;;17.27;;
30243;SDS011;64022;53.652;9.792;2022-12-07T03:44:59;26.17;;;16.77;;
30243;SDS011;64022;53.652;9.792;2022-12-07T03:47:27;28.23;;;17.40;;
30243;SDS011;64022;53.652;9.792;2022-12-07T03:49:59;28.17;;;17.40;;
30243;SDS011;64022;53.652;9.792;2022-12-07T03:52:27;29.48;;;16.98;;
30243;SDS011;64022;53.652;9.792;2022-12-07T03:55:08;30.73;;;18.05;;
30243;SDS011;64022;53.652;9.792;2022-12-07T03:57:45;26.98;;;17.20;;
30243;SDS011;64022;53.652;9.792;2022-12-07T04:00:13;29.70;;;17.15;;
30243;SDS011;64022;53.652;9.792;2022-12-07T04:02:39;24.80;;;16.97;;
30243;SDS011;64022;53.652;9.792;2022-12-07T04:05:06;23.05;;;16.00;;
30243;SDS011;64022;53.652;9.792;2022-12-07T04:07:32;25.95;;;16.20;;
30243;SDS011;64022;53.652;9.792;2022-12-07T04:09:57;25.73;;;16.07;;
30243;SDS011;64022;53.652;9.792;2022-12-07T04:12:23;24.50;;;16.07;;
30243;SDS011;64022;53.652;9.792;2022-12-07T04:14:49;21.77;;;15.43;;
30243;SDS011;64022;53.652;9.792;2022-12-07T04:17:14;27.23;;;16.57;;
30243;SDS011;64022;53.652;9.792;2022-12-07T04:19:40;24.20;;;16.43;;
30243;SDS011;64022;53.652;9.792;2022-12-07T04:22:06;26.33;;;16.53;;
30243;SDS011;64022;53.652;9.792;2022-12-07T04:24:32;24.80;;;16.27;;
30243;SDS011;64022;53.652;9.792;2022-12-07T04:26:58;22.15;;;15.82;;
30243;SDS011;64022;53.652;9.792;2022-12-07T04:29:24;23.47;;;15.30;;
30243;SDS011;64022;53.652;9.792;2022-12-07T04:31:50;21.70;;;15.15;;
30243;SDS011;64022;53.652;9.792;2022-12-07T04:34:16;24.53;;;15.47;;
30243;SDS011;64022;53.652;9.792;2022-12-07T04:36:42;23.73;;;15.43;;
30243;SDS011;64022;53.652;9.792;2022-12-07T04:39:13;23.48;;;15.55;;
30243;SDS011;64022;53.652;9.792;2022-12-07T04:41:50;20.23;;;14.30;;
30243;SDS011;64022;53.652;9.792;2022-12-07T04:44:16;24.23;;;15.37;;
30243;SDS011;64022;53.652;9.792;2022-12-07T04:46:42;24.10;;;15.25;;
30243;SDS011;64022;53.652;9.792;2022-12-07T04:49:09;24.55;;;14.70;;
30243;SDS011;64022;53.652;9.792;2022-12-07T04:54:01;22.98;;;14.15;;
30243;SDS011;64022;53.652;9.792;2022-12-07T04:56:27;23.23;;;14.47;;
30243;SDS011;64022;53.652;9.792;2022-12-07T04:58:53;24.10;;;14.57;;
30243;SDS011;64022;53.652;9.792;2022-12-07T05:01:20;23.60;;;14.30;;
30243;SDS011;64022;53.652;9.792;2022-12-07T05:03:46;21.00;;;13.68;;
30243;SDS011;64022;53.652;9.792;2022-12-07T05:06:12;22.93;;;14.43;;
30243;SDS011;64022;53.652;9.792;2022-12-07T05:08:38;21.35;;;13.65;;
30243;SDS011;64022;53.652;9.792;2022-12-07T05:11:04;22.00;;;15.00;;
30243;SDS011;64022;53.652;9.792;2022-12-07T05:13:31;22.70;;;14.75;;
30243;SDS011;64022;53.652;9.792;2022-12-07T05:15:57;23.60;;;15.53;;
30243;SDS011;64022;53.652;9.792;2022-12-07T05:18:23;24.57;;;14.67;;
30243;SDS011;64022;53.652;9.792;2022-12-07T05:20:49;20.80;;;13.67;;
30243;SDS011;64022;53.652;9.792;2022-12-07T05:25:41;20.63;;;13.50;;
30243;SDS011;64022;53.652;9.792;2022-12-07T05:28:07;23.17;;;13.47;;
30243;SDS011;64022;53.652;9.792;2022-12-07T05:30:33;23.23;;;14.57;;
30243;SDS011;64022;53.652;9.792;2022-12-07T05:32:58;21.17;;;14.03;;
30243;SDS011;64022;53.652;9.792;2022-12-07T05:35:24;20.40;;;13.60;;
30243;SDS011;64022;53.652;9.792;2022-12-07T05:37:49;19.67;;;13.77;;
30243;SDS011;64022;53.652;9.792;2022-12-07T05:40:16;22.33;;;12.97;;
30243;SDS011;64022;53.652;9.792;2022-12-07T05:42:41;21.73;;;13.50;;
30243;SDS011;64022;53.652;9.792;2022-12-07T05:45:08;21.20;;;13.13;;
30243;SDS011;64022;53.652;9.792;2022-12-07T05:47:34;21.15;;;12.48;;
30243;SDS011;64022;53.652;9.792;2022-12-07T05:50:00;20.52;;;13.48;;
30243;SDS011;64022;53.652;9.792;2022-12-07T05:52:26;21.10;;;13.63;;
30243;SDS011;64022;53.652;9.792;2022-12-07T05:54:52;20.30;;;12.80;;
30243;SDS011;64022;53.652;9.792;2022-12-07T05:57:18;17.33;;;12.17;;
30243;SDS011;64022;53.652;9.792;2022-12-07T05:59:43;21.58;;;13.70;;
30243;SDS011;64022;53.652;9.792;2022-12-07T06:02:10;18.53;;;12.67;;
30243;SDS011;64022;53.652;9.792;2022-12-07T06:04:39;23.05;;;13.63;;
30243;SDS011;64022;53.652;9.792;2022-12-07T06:07:06;18.70;;;12.65;;
30243;SDS011;64022;53.652;9.792;2022-12-07T06:09:32;20.70;;;14.13;;
30243;SDS011;64022;53.652;9.792;2022-12-07T06:11:58;20.27;;;13.10;;
30243;SDS011;64022;53.652;9.792;2022-12-07T06:14:42;18.50;;;13.00;;
30243;SDS011;64022;53.652;9.792;2022-12-07T06:17:08;19.10;;;13.15;;
30243;SDS011;64022;53.652;9.792;2022-12-07T06:19:35;20.40;;;13.35;;
30243;SDS011;64022;53.652;9.792;2022-12-07T06:22:01;22.97;;;14.00;;
30243;SDS011;64022;53.652;9.792;2022-12-07T06:24:27;19.45;;;13.70;;
30243;SDS011;64022;53.652;9.792;2022-12-07T06:26:53;20.73;;;13.23;;
30243;SDS011;64022;53.652;9.792;2022-12-07T06:29:18;20.33;;;14.03;;
30243;SDS011;64022;53.652;9.792;2022-12-07T06:31:44;24.03;;;14.87;;
30243;SDS011;64022;53.652;9.792;2022-12-07T06:34:12;22.90;;;14.43;;
30243;SDS011;64022;53.652;9.792;2022-12-07T06:36:39;24.90;;;14.82;;
30243;SDS011;64022;53.652;9.792;2022-12-07T06:39:05;22.92;;;14.75;;
30243;SDS011;64022;53.652;9.792;2022-12-07T06:41:32;26.30;;;16.15;;
30243;SDS011;64022;53.652;9.792;2022-12-07T06:43:58;24.13;;;16.03;;
30243;SDS011;64022;53.652;9.792;2022-12-07T06:46:23;24.30;;;16.27;;
30243;SDS011;64022;53.652;9.792;2022-12-07T06:48:49;28.70;;;17.27;;
30243;SDS011;64022;53.652;9.792;2022-12-07T06:51:15;25.97;;;16.47;;
30243;SDS011;64022;53.652;9.792;2022-12-07T06:53:41;23.43;;;15.93;;
30243;SDS011;64022;53.652;9.792;2022-12-07T06:56:06;26.63;;;16.47;;
30243;SDS011;64022;53.652;9.792;2022-12-07T06:58:32;23.53;;;15.83;;
30243;SDS011;64022;53.652;9.792;2022-12-07T07:00:58;26.87;;;17.27;;
30243;SDS011;64022;53.652;9.792;2022-12-07T07:03:23;27.47;;;17.07;;
30243;SDS011;64022;53.652;9.792;2022-12-07T07:05:49;28.83;;;18.37;;
30243;SDS011;64022;53.652;9.792;2022-12-07T07:08:14;28.17;;;18.07;;
30243;SDS011;64022;53.652;9.792;2022-12-07T07:10:40;26.57;;;17.63;;
30243;SDS011;64022;53.652;9.792;2022-12-07T07:13:06;29.38;;;18.25;;
30243;SDS011;64022;53.652;9.792;2022-12-07T07:15:32;29.20;;;18.10;;
30243;SDS011;64022;53.652;9.792;2022-12-07T07:17:59;29.40;;;18.20;;
30243;SDS011;64022;53.652;9.792;2022-12-07T07:20:25;29.17;;;18.77;;
30243;SDS011;64022;53.652;9.792;2022-12-07T07:22:51;31.93;;;19.13;;
30243;SDS011;64022;53.652;9.792;2022-12-07T07:25:19;26.17;;;18.05;;
30243;SDS011;64022;53.652;9.792;2022-12-07T07:27:45;29.57;;;18.83;;
30243;SDS011;64022;53.652;9.792;2022-12-07T07:30:10;27.60;;;18.43;;
30243;SDS011;64022;53.652;9.792;2022-12-07T07:32:36;31.10;;;19.73;;
30243;SDS011;64022;53.652;9.792;2022-12-07T07:35:02;34.13;;;20.27;;
30243;SDS011;64022;53.652;9.792;2022-12-07T07:37:28;27.90;;;19.00;;
30243;SDS011;64022;53.652;9.792;2022-12-07T07:39:53;29.33;;;18.53;;
30243;SDS011;64022;53.652;9.792;2022-12-07T07:42:19;30.97;;;20.77;;
30243;SDS011;64022;53.652;9.792;2022-12-07T07:44:44;29.97;;;19.27;;
30243;SDS011;64022;53.652;9.792;2022-12-07T07:47:10;33.23;;;20.97;;
30243;SDS011;64022;53.652;9.792;2022-12-07T07:49:35;35.10;;;21.23;;
30243;SDS011;64022;53.652;9.792;2022-12-07T07:52:01;31.90;;;21.37;;
30243;SDS011;64022;53.652;9.792;2022-12-07T07:54:27;31.00;;;19.53;;
30243;SDS011;64022;53.652;9.792;2022-12-07T07:56:53;32.80;;;20.87;;
30243;SDS011;64022;53.652;9.792;2022-12-07T07:59:19;33.03;;;21.10;;
30243;SDS011;64022;53.652;9.792;2022-12-07T08:01:44;32.03;;;19.63;;
30243;SDS011;64022;53.652;9.792;2022-12-07T08:04:10;33.50;;;20.83;;
30243;SDS011;64022;53.652;9.792;2022-12-07T08:06:35;30.30;;;20.10;;
30243;SDS011;64022;53.652;9.792;2022-12-07T08:09:01;32.57;;;21.13;;
30243;SDS011;64022;53.652;9.792;2022-12-07T08:11:27;32.30;;;20.85;;
30243;SDS011;64022;53.652;9.792;2022-12-07T08:13:53;35.47;;;21.13;;
30243;SDS011;64022;53.652;9.792;2022-12-07T08:16:18;31.50;;;20.47;;
30243;SDS011;64022;53.652;9.792;2022-12-07T08:18:44;31.60;;;20.67;;
30243;SDS011;64022;53.652;9.792;2022-12-07T08:21:11;36.70;;;20.43;;
30243;SDS011;64022;53.652;9.792;2022-12-07T08:23:38;35.65;;;20.98;;
30243;SDS011;64022;53.652;9.792;2022-12-07T08:26:05;31.67;;;20.40;;
30243;SDS011;64022;53.652;9.792;2022-12-07T08:28:32;33.60;;;21.52;;
30243;SDS011;64022;53.652;9.792;2022-12-07T08:31:05;35.80;;;21.80;;
30243;SDS011;64022;53.652;9.792;2022-12-07T08:33:33;31.95;;;20.15;;
30243;SDS011;64022;53.652;9.792;2022-12-07T08:36:01;35.65;;;21.27;;
30243;SDS011;64022;53.652;9.792;2022-12-07T08:38:27;37.63;;;21.90;;
30243;SDS011;64022;53.652;9.792;2022-12-07T08:40:57;31.83;;;20.73;;
30243;SDS011;64022;53.652;9.792;2022-12-07T08:43:23;31.70;;;21.73;;
30243;SDS011;64022;53.652;9.792;2022-12-07T08:45:51;32.17;;;20.92;;
30243;SDS011;64022;53.652;9.792;2022-12-07T08:50:52;32.17;;;20.27;;
30243;SDS011;64022;53.652;9.792;2022-12-07T08:53:17;35.90;;;20.83;;
30243;SDS011;64022;53.652;9.792;2022-12-07T08:55:44;11.03;;;7.53;;
30243;SDS011;64022;53.652;9.792;2022-12-07T08:58:10;16.63;;;5.88;;
30243;SDS011;64022;53.652;9.792;2022-12-07T09:00:36;39.57;;;14.40;;
30243;SDS011;64022;53.652;9.792;2022-12-07T09:03:02;20.40;;;3.87;;
30243;SDS011;64022;53.652;9.792;2022-12-07T09:05:27;5.20;;;1.97;;
30243;SDS011;64022;53.652;9.792;2022-12-07T09:07:54;6.60;;;1.50;;
30243;SDS011;64022;53.652;9.792;2022-12-07T09:10:22;15.75;;;4.15;;
30243;SDS011;64022;53.652;9.792;2022-12-07T09:12:48;14.87;;;3.97;;
30243;SDS011;64022;53.652;9.792;2022-12-07T09:15:14;14.33;;;4.40;;
30243;SDS011;64022;53.652;9.792;2022-12-07T09:17:39;13.10;;;3.83;;
30243;SDS011;64022;53.652;9.792;2022-12-07T09:20:05;12.57;;;3.90;;
30243;SDS011;64022;53.652;9.792;2022-12-07T09:22:31;16.30;;;5.30;;
30243;SDS011;64022;53.652;9.792;2022-12-07T09:24:58;13.75;;;5.13;;
30243;SDS011;64022;53.652;9.792;2022-12-07T09:27:24;12.10;;;5.30;;
30243;SDS011;64022;53.652;9.792;2022-12-07T09:29:50;20.23;;;6.07;;
30243;SDS011;64022;53.652;9.792;2022-12-07T09:32:16;14.70;;;5.73;;
30243;SDS011;64022;53.652;9.792;2022-12-07T09:34:41;20.20;;;5.43;;
30243;SDS011;64022;53.652;9.792;2022-12-07T09:37:07;15.67;;;5.73;;
30243;SDS011;64022;53.652;9.792;2022-12-07T09:39:33;15.47;;;5.90;;
30243;SDS011;64022;53.652;9.792;2022-12-07T09:41:58;14.73;;;6.23;;
30243;SDS011;64022;53.652;9.792;2022-12-07T09:44:27;21.70;;;6.90;;
30243;SDS011;64022;53.652;9.792;2022-12-07T09:46:53;13.50;;;5.80;;
30243;SDS011;64022;53.652;9.792;2022-12-07T09:49:20;14.30;;;5.82;;
30243;SDS011;64022;53.652;9.792;2022-12-07T09:51:57;15.65;;;5.95;;
30243;SDS011;64022;53.652;9.792;2022-12-07T09:54:34;14.95;;;6.60;;
30243;SDS011;64022;53.652;9.792;2022-12-07T09:57:04;11.38;;;5.70;;
30243;SDS011;64022;53.652;9.792;2022-12-07T09:59:30;17.07;;;6.20;;
30243;SDS011;64022;53.652;9.792;2022-12-07T10:01:55;20.70;;;6.60;;
30243;SDS011;64022;53.652;9.792;2022-12-07T10:04:41;14.45;;;6.53;;
30243;SDS011;64022;53.652;9.792;2022-12-07T10:07:08;15.68;;;6.25;;
30243;SDS011;64022;53.652;9.792;2022-12-07T10:09:34;13.67;;;6.80;;
30243;SDS011;64022;53.652;9.792;2022-12-07T10:12:02;12.52;;;6.30;;
30243;SDS011;64022;53.652;9.792;2022-12-07T10:14:37;19.27;;;7.25;;
30243;SDS011;64022;53.652;9.792;2022-12-07T10:20:08;12.45;;;7.55;;
30243;SDS011;64022;53.652;9.792;2022-12-07T10:22:47;19.20;;;7.75;;
30243;SDS011;64022;53.652;9.792;2022-12-07T10:25:24;15.23;;;6.78;;
30243;SDS011;64022;53.652;9.792;2022-12-07T10:27:57;16.58;;;6.78;;
30243;SDS011;64022;53.652;9.792;2022-12-07T10:30:47;14.32;;;7.47;;
30243;SDS011;64022;53.652;9.792;2022-12-07T10:33:28;17.15;;;7.00;;
30243;SDS011;64022;53.652;9.792;2022-12-07T10:36:20;13.18;;;7.25;;
30243;SDS011;64022;53.652;9.792;2022-12-07T10:38:49;14.52;;;6.68;;
30243;SDS011;64022;53.652;9.792;2022-12-07T10:41:28;12.55;;;7.10;;
30243;SDS011;64022;53.652;9.792;2022-12-07T10:43:54;11.53;;;6.73;;
30243;SDS011;64022;53.652;9.792;2022-12-07T10:55:06;12.10;;;6.78;;
30243;SDS011;64022;53.652;9.792;2022-12-07T11:06:30;12.05;;;6.53;;
30243;SDS011;64022;53.652;9.792;2022-12-07T11:28:18;14.30;;;6.53;;
30243;SDS011;64022;53.652;9.792;2022-12-07T11:33:37;14.87;;;7.27;;
30243;SDS011;64022;53.652;9.792;2022-12-07T11:38:53;11.75;;;6.35;;
30243;SDS011;64022;53.652;9.792;2022-12-07T11:41:33;13.43;;;6.47;;
30243;SDS011;64022;53.652;9.792;2022-12-07T11:46:36;12.00;;;7.20;;
30243;SDS011;64022;53.652;9.792;2022-12-07T11:49:19;17.40;;;7.45;;
30243;SDS011;64022;53.652;9.792;2022-12-07T11:51:46;14.60;;;7.10;;
30243;SDS011;64022;53.652;9.792;2022-12-07T11:54:27;15.82;;;7.50;;
30243;SDS011;64022;53.652;9.792;2022-12-07T11:56:56;20.15;;;7.28;;
30243;SDS011;64022;53.652;9.792;2022-12-07T11:59:39;11.70;;;6.57;;
30243;SDS011;64022;53.652;9.792;2022-12-07T12:02:14;16.27;;;7.13;;
30243;SDS011;64022;53.652;9.792;2022-12-07T12:04:51;13.02;;;6.13;;
30243;SDS011;64022;53.652;9.792;2022-12-07T12:07:26;11.05;;;6.35;;
30243;SDS011;64022;53.652;9.792;2022-12-07T12:10:00;13.30;;;6.53;;
30243;SDS011;64022;53.652;9.792;2022-12-07T12:12:37;13.70;;;7.00;;
30243;SDS011;64022;53.652;9.792;2022-12-07T12:18:02;13.60;;;6.05;;
30243;SDS011;64022;53.652;9.792;2022-12-07T12:21:06;20.40;;;6.15;;
30243;SDS011;64022;53.652;9.792;2022-12-07T12:23:50;17.83;;;6.43;;
30243;SDS011;64022;53.652;9.792;2022-12-07T12:26:22;12.98;;;7.45;;
30243;SDS011;64022;53.652;9.792;2022-12-07T12:28:57;12.63;;;6.43;;
30243;SDS011;64022;53.652;9.792;2022-12-07T12:31:46;12.15;;;6.38;;
30243;SDS011;64022;53.652;9.792;2022-12-07T12:42:50;13.45;;;6.70;;
30243;SDS011;64022;53.652;9.792;2022-12-07T12:48:00;14.40;;;6.82;;
30243;SDS011;64022;53.652;9.792;2022-12-07T12:50:45;14.40;;;6.45;;
30243;SDS011;64022;53.652;9.792;2022-12-07T12:53:16;13.63;;;6.47;;
30243;SDS011;64022;53.652;9.792;2022-12-07T12:58:32;11.43;;;5.38;;
30243;SDS011;64022;53.652;9.792;2022-12-07T13:03:56;14.75;;;6.45;;
30243;SDS011;64022;53.652;9.792;2022-12-07T13:08:52;9.93;;;5.82;;
30243;SDS011;64022;53.652;9.792;2022-12-07T13:11:25;13.98;;;6.13;;
30243;SDS011;64022;53.652;9.792;2022-12-07T13:17:01;19.08;;;5.90;;
30243;SDS011;64022;53.652;9.792;2022-12-07T13:22:34;12.63;;;6.45;;
30243;SDS011;64022;53.652;9.792;2022-12-07T13:25:18;12.00;;;5.82;;
30243;SDS011;64022;53.652;9.792;2022-12-07T13:28:08;9.95;;;6.05;;
30243;SDS011;64022;53.652;9.792;2022-12-07T13:30:44;15.07;;;5.78;;
30243;SDS011;64022;53.652;9.792;2022-12-07T13:33:32;12.10;;;6.40;;
30243;SDS011;64022;53.652;9.792;2022-12-07T13:35:59;12.27;;;6.57;;
30243;SDS011;64022;53.652;9.792;2022-12-07T13:38:27;12.23;;;6.37;;
30243;SDS011;64022;53.652;9.792;2022-12-07T13:43:51;12.25;;;6.45;;
30243;SDS011;64022;53.652;9.792;2022-12-07T13:46:27;11.63;;;5.93;;
30243;SDS011;64022;53.652;9.792;2022-12-07T13:49:36;10.52;;;5.57;;
30243;SDS011;64022;53.652;9.792;2022-12-07T13:52:13;11.23;;;5.70;;
30243;SDS011;64022;53.652;9.792;2022-12-07T13:54:47;13.48;;;5.75;;
30243;SDS011;64022;53.652;9.792;2022-12-07T13:57:18;10.73;;;5.55;;
30243;SDS011;64022;53.652;9.792;2022-12-07T13:59:43;11.32;;;6.13;;
30243;SDS011;64022;53.652;9.792;2022-12-07T14:02:17;11.32;;;5.40;;
30243;SDS011;64022;53.652;9.792;2022-12-07T14:04:46;9.95;;;5.78;;
30243;SDS011;64022;53.652;9.792;2022-12-07T14:07:18;11.13;;;5.97;;
30243;SDS011;64022;53.652;9.792;2022-12-07T14:12:24;14.45;;;6.00;;
30243;SDS011;64022;53.652;9.792;2022-12-07T14:14:51;8.80;;;5.63;;
30243;SDS011;64022;53.652;9.792;2022-12-07T14:17:20;10.70;;;5.78;;
30243;SDS011;64022;53.652;9.792;2022-12-07T14:19:49;9.18;;;5.97;;
30243;SDS011;64022;53.652;9.792;2022-12-07T14:24:58;10.05;;;5.30;;
30243;SDS011;64022;53.652;9.792;2022-12-07T14:27:30;10.93;;;5.97;;
30243;SDS011;64022;53.652;9.792;2022-12-07T14:29:58;10.00;;;5.60;;
30243;SDS011;64022;53.652;9.792;2022-12-07T14:32:26;9.02;;;5.57;;
30243;SDS011;64022;53.652;9.792;2022-12-07T14:35:16;11.02;;;5.55;;
30243;SDS011;64022;53.652;9.792;2022-12-07T14:37:41;9.95;;;6.00;;
30243;SDS011;64022;53.652;9.792;2022-12-07T14:40:12;9.90;;;5.72;;
30243;SDS011;64022;53.652;9.792;2022-12-07T14:42:45;11.20;;;5.47;;
30243;SDS011;64022;53.652;9.792;2022-12-07T14:45:14;10.85;;;5.82;;
30243;SDS011;64022;53.652;9.792;2022-12-07T14:47:42;10.70;;;5.50;;
30243;SDS011;64022;53.652;9.792;2022-12-07T14:50:08;11.50;;;6.63;;
30243;SDS011;64022;53.652;9.792;2022-12-07T14:52:36;10.13;;;5.20;;
30243;SDS011;64022;53.652;9.792;2022-12-07T14:55:01;11.37;;;5.87;;
30243;SDS011;64022;53.652;9.792;2022-12-07T14:57:27;11.57;;;5.70;;
30243;SDS011;64022;53.652;9.792;2022-12-07T14:59:52;9.67;;;5.50;;
30243;SDS011;64022;53.652;9.792;2022-12-07T15:02:18;10.53;;;5.67;;
30243;SDS011;64022;53.652;9.792;2022-12-07T15:04:43;10.47;;;6.03;;
30243;SDS011;64022;53.652;9.792;2022-12-07T15:07:14;9.27;;;5.43;;
30243;SDS011;64022;53.652;9.792;2022-12-07T15:09:43;11.45;;;5.90;;
30243;SDS011;64022;53.652;9.792;2022-12-07T15:12:09;12.17;;;5.10;;
30243;SDS011;64022;53.652;9.792;2022-12-07T15:14:34;8.40;;;4.97;;
30243;SDS011;64022;53.652;9.792;2022-12-07T15:17:00;12.80;;;5.73;;
30243;SDS011;64022;53.652;9.792;2022-12-07T15:19:25;9.47;;;5.10;;
30243;SDS011;64022;53.652;9.792;2022-12-07T15:21:52;9.93;;;4.72;;
30243;SDS011;64022;53.652;9.792;2022-12-07T15:24:18;11.67;;;5.27;;
30243;SDS011;64022;53.652;9.792;2022-12-07T15:26:44;9.75;;;5.38;;
30243;SDS011;64022;53.652;9.792;2022-12-07T15:29:10;9.88;;;5.28;;
30243;SDS011;64022;53.652;9.792;2022-12-07T15:31:36;10.57;;;5.27;;
30243;SDS011;64022;53.652;9.792;2022-12-07T15:34:03;8.20;;;5.03;;
30243;SDS011;64022;53.652;9.792;2022-12-07T15:36:30;12.68;;;4.45;;
30243;SDS011;64022;53.652;9.792;2022-12-07T15:38:57;11.13;;;5.03;;
30243;SDS011;64022;53.652;9.792;2022-12-07T15:41:23;9.73;;;5.30;;
30243;SDS011;64022;53.652;9.792;2022-12-07T15:43:49;9.35;;;4.88;;
30243;SDS011;64022;53.652;9.792;2022-12-07T15:46:34;9.38;;;4.95;;
30243;SDS011;64022;53.652;9.792;2022-12-07T15:49:02;10.32;;;4.90;;
30243;SDS011;64022;53.652;9.792;2022-12-07T15:51:29;9.00;;;5.20;;
30243;SDS011;64022;53.652;9.792;2022-12-07T15:53:54;12.13;;;5.47;;
30243;SDS011;64022;53.652;9.792;2022-12-07T15:56:23;11.40;;;4.68;;
30243;SDS011;64022;53.652;9.792;2022-12-07T15:58:48;9.50;;;4.87;;
30243;SDS011;64022;53.652;9.792;2022-12-07T16:01:15;8.83;;;5.13;;
30243;SDS011;64022;53.652;9.792;2022-12-07T16:03:43;12.30;;;5.15;;
30243;SDS011;64022;53.652;9.792;2022-12-07T16:06:09;9.55;;;4.85;;
30243;SDS011;64022;53.652;9.792;2022-12-07T16:08:35;8.35;;;4.90;;
30243;SDS011;64022;53.652;9.792;2022-12-07T16:11:04;20.83;;;5.23;;
30243;SDS011;64022;53.652;9.792;2022-12-07T16:13:31;6.75;;;4.43;;
30243;SDS011;64022;53.652;9.792;2022-12-07T16:15:57;7.38;;;4.60;;
30243;SDS011;64022;53.652;9.792;2022-12-07T16:18:22;8.13;;;5.20;;
30243;SDS011;64022;53.652;9.792;2022-12-07T16:20:48;7.97;;;4.67;;
30243;SDS011;64022;53.652;9.792;2022-12-07T16:23:14;9.97;;;4.93;;
30243;SDS011;64022;53.652;9.792;2022-12-07T16:25:40;9.38;;;4.72;;
30243;SDS011;64022;53.652;9.792;2022-12-07T16:28:06;10.57;;;5.07;;
30243;SDS011;64022;53.652;9.792;2022-12-07T16:32:58;12.00;;;4.88;;
30243;SDS011;64022;53.652;9.792;2022-12-07T16:35:23;7.70;;;4.70;;
30243;SDS011;64022;53.652;9.792;2022-12-07T16:37:49;11.03;;;5.13;;
30243;SDS011;64022;53.652;9.792;2022-12-07T16:40:14;11.17;;;4.37;;
30243;SDS011;64022;53.652;9.792;2022-12-07T16:42:40;8.10;;;4.73;;